sensor_id;sensor_type;location;lat;lon;timestamp;P1;durP1;ratioP1;P2;durP2;ratioP2
39314;SDS011;28703;44.412;11.918;2023-02-01T00:02:05;83.10;;;53.90;;
39314;SDS011;28703;44.412;11.918;2023-02-01T00:04:31;76.75;;;52.00;;
39314;SDS011;28703;44.412;11.918;2023-02-01T00:06:57;87.97;;;54.67;;
39314;SDS011;28703;44.412;11.918;2023-02-01T00:09:23;80.57;;;53.50;;
39314;SDS011;28703;44.412;11.918;2023-02-01T00:11:49;87.00;;;54.85;;
39314;SDS011;28703;44.412;11.918;2023-02-01T00:14:15;83.68;;;52.85;;
39314;SDS011;28703;44.412;11.918;2023-02-01T00:16:42;82.03;;;55.53;;
39314;SDS011;28703;44.412;11.918;2023-02-01T00:19:12;90.47;;;56.88;;
39314;SDS011;28703;44.412;11.918;2023-02-01T00:24:05;88.25;;;53.33;;
39314;SDS011;28703;44.412;11.918;2023-02-01T00:26:33;84.38;;;53.72;;
39314;SDS011;28703;44.412;11.918;2023-02-01T00:29:05;86.38;;;53.50;;
39314;SDS011;28703;44.412;11.918;2023-02-01T00:31:35;82.53;;;53.80;;
39314;SDS011;28703;44.412;11.918;2023-02-01T00:34:02;75.80;;;50.03;;
39314;SDS011;28703;44.412;11.918;2023-02-01T00:36:28;77.10;;;51.53;;
39314;SDS011;28703;44.412;11.918;2023-02-01T00:38:55;77.90;;;51.17;;
39314;SDS011;28703;44.412;11.918;2023-02-01T00:41:21;82.15;;;52.90;;
39314;SDS011;28703;44.412;11.918;2023-02-01T00:43:47;82.28;;;52.92;;
39314;SDS011;28703;44.412;11.918;2023-02-01T00:46:16;77.53;;;50.47;;
39314;SDS011;28703;44.412;11.918;2023-02-01T00:48:43;77.78;;;52.22;;
39314;SDS011;28703;44.412;11.918;2023-02-01T00:51:10;80.25;;;50.80;;
39314;SDS011;28703;44.412;11.918;2023-02-01T00:53:39;81.93;;;50.58;;
39314;SDS011;28703;44.412;11.918;2023-02-01T00:56:05;80.22;;;50.88;;
39314;SDS011;28703;44.412;11.918;2023-02-01T00:58:32;77.40;;;50.00;;
39314;SDS011;28703;44.412;11.918;2023-02-01T01:03:33;74.05;;;49.45;;
39314;SDS011;28703;44.412;11.918;2023-02-01T01:06:03;84.00;;;53.45;;
39314;SDS011;28703;44.412;11.918;2023-02-01T01:08:34;79.10;;;49.28;;
39314;SDS011;28703;44.412;11.918;2023-02-01T01:11:08;79.80;;;49.88;;
39314;SDS011;28703;44.412;11.918;2023-02-01T01:13:38;78.63;;;49.30;;
39314;SDS011;28703;44.412;11.918;2023-02-01T01:16:06;82.15;;;49.83;;
39314;SDS011;28703;44.412;11.918;2023-02-01T01:18:33;75.80;;;48.72;;
39314;SDS011;28703;44.412;11.918;2023-02-01T01:21:00;84.47;;;51.58;;
39314;SDS011;28703;44.412;11.918;2023-02-01T01:23:27;73.18;;;46.70;;
39314;SDS011;28703;44.412;11.918;2023-02-01T01:25:53;74.88;;;49.05;;
39314;SDS011;28703;44.412;11.918;2023-02-01T01:28:19;78.43;;;48.42;;
39314;SDS011;28703;44.412;11.918;2023-02-01T01:30:45;72.93;;;47.42;;
39314;SDS011;28703;44.412;11.918;2023-02-01T01:33:11;81.18;;;48.15;;
39314;SDS011;28703;44.412;11.918;2023-02-01T01:35:37;70.25;;;46.45;;
39314;SDS011;28703;44.412;11.918;2023-02-01T01:38:04;76.85;;;48.95;;
39314;SDS011;28703;44.412;11.918;2023-02-01T01:40:30;73.78;;;48.55;;
39314;SDS011;28703;44.412;11.918;2023-02-01T01:42:57;86.63;;;52.50;;
39314;SDS011;28703;44.412;11.918;2023-02-01T01:45:31;80.88;;;52.33;;
39314;SDS011;28703;44.412;11.918;2023-02-01T01:47:59;81.30;;;52.38;;
39314;SDS011;28703;44.412;11.918;2023-02-01T01:50:35;83.15;;;51.38;;
39314;SDS011;28703;44.412;11.918;2023-02-01T01:53:05;85.25;;;52.80;;
39314;SDS011;28703;44.412;11.918;2023-02-01T01:55:35;87.88;;;53.38;;
39314;SDS011;28703;44.412;11.918;2023-02-01T01:58:05;84.65;;;52.40;;
39314;SDS011;28703;44.412;11.918;2023-02-01T02:00:35;79.40;;;50.95;;
39314;SDS011;28703;44.412;11.918;2023-02-01T02:03:44;85.43;;;50.60;;
39314;SDS011;28703;44.412;11.918;2023-02-01T02:05:55;77.30;;;48.13;;
39314;SDS011;28703;44.412;11.918;2023-02-01T02:08:24;75.10;;;48.90;;
39314;SDS011;28703;44.412;11.918;2023-02-01T02:10:52;74.13;;;48.08;;
39314;SDS011;28703;44.412;11.918;2023-02-01T02:13:28;78.10;;;49.65;;
39314;SDS011;28703;44.412;11.918;2023-02-01T02:26:39;79.80;;;48.42;;
39314;SDS011;28703;44.412;11.918;2023-02-01T02:34:41;80.18;;;51.33;;
39314;SDS011;28703;44.412;11.918;2023-02-01T02:40:22;83.75;;;51.15;;
39314;SDS011;28703;44.412;11.918;2023-02-01T02:43:10;75.00;;;48.50;;
39314;SDS011;28703;44.412;11.918;2023-02-01T02:46:24;74.95;;;49.78;;
39314;SDS011;28703;44.412;11.918;2023-02-01T02:51:52;75.72;;;48.42;;
39314;SDS011;28703;44.412;11.918;2023-02-01T02:54:45;78.88;;;48.85;;
39314;SDS011;28703;44.412;11.918;2023-02-01T02:57:20;79.20;;;48.65;;
39314;SDS011;28703;44.412;11.918;2023-02-01T03:00:29;77.85;;;48.30;;
39314;SDS011;28703;44.412;11.918;2023-02-01T03:03:16;72.20;;;46.00;;
39314;SDS011;28703;44.412;11.918;2023-02-01T03:06:22;71.03;;;44.75;;
39314;SDS011;28703;44.412;11.918;2023-02-01T03:08:48;78.32;;;46.40;;
39314;SDS011;28703;44.412;11.918;2023-02-01T03:11:32;85.53;;;50.38;;
39314;SDS011;28703;44.412;11.918;2023-02-01T03:14:19;70.57;;;46.58;;
39314;SDS011;28703;44.412;11.918;2023-02-01T03:16:50;75.55;;;47.10;;
39314;SDS011;28703;44.412;11.918;2023-02-01T03:19:31;79.05;;;49.42;;
39314;SDS011;28703;44.412;11.918;2023-02-01T03:22:04;75.30;;;45.67;;
39314;SDS011;28703;44.412;11.918;2023-02-01T03:24:54;82.22;;;47.15;;
39314;SDS011;28703;44.412;11.918;2023-02-01T03:28:07;73.90;;;47.05;;
39314;SDS011;28703;44.412;11.918;2023-02-01T03:30:34;73.43;;;47.65;;
39314;SDS011;28703;44.412;11.918;2023-02-01T03:33:04;76.75;;;46.53;;
39314;SDS011;28703;44.412;11.918;2023-02-01T03:41:35;75.80;;;48.85;;
39314;SDS011;28703;44.412;11.918;2023-02-01T03:46:56;80.82;;;48.75;;
39314;SDS011;28703;44.412;11.918;2023-02-01T03:52:44;79.13;;;48.55;;
39314;SDS011;28703;44.412;11.918;2023-02-01T03:57:44;75.55;;;46.78;;
39314;SDS011;28703;44.412;11.918;2023-02-01T04:00:17;79.85;;;48.35;;
39314;SDS011;28703;44.412;11.918;2023-02-01T04:02:49;76.28;;;48.20;;
39314;SDS011;28703;44.412;11.918;2023-02-01T04:05:34;79.57;;;48.67;;
39314;SDS011;28703;44.412;11.918;2023-02-01T04:08:03;78.72;;;48.85;;
39314;SDS011;28703;44.412;11.918;2023-02-01T04:10:48;80.97;;;48.45;;
39314;SDS011;28703;44.412;11.918;2023-02-01T04:13:14;80.10;;;46.50;;
39314;SDS011;28703;44.412;11.918;2023-02-01T04:15:39;84.97;;;49.28;;
39314;SDS011;28703;44.412;11.918;2023-02-01T04:18:24;91.85;;;63.97;;
39314;SDS011;28703;44.412;11.918;2023-02-01T04:20:50;76.22;;;50.10;;
39314;SDS011;28703;44.412;11.918;2023-02-01T04:26:02;76.80;;;46.75;;
39314;SDS011;28703;44.412;11.918;2023-02-01T04:28:29;72.72;;;47.03;;
39314;SDS011;28703;44.412;11.918;2023-02-01T04:30:56;73.15;;;47.03;;
39314;SDS011;28703;44.412;11.918;2023-02-01T04:33:22;71.85;;;47.20;;
39314;SDS011;28703;44.412;11.918;2023-02-01T04:36:06;77.78;;;46.20;;
39314;SDS011;28703;44.412;11.918;2023-02-01T04:38:51;72.22;;;47.05;;
39314;SDS011;28703;44.412;11.918;2023-02-01T04:41:19;74.22;;;47.83;;
39314;SDS011;28703;44.412;11.918;2023-02-01T04:43:48;66.55;;;45.28;;
39314;SDS011;28703;44.412;11.918;2023-02-01T04:46:15;63.05;;;43.33;;
39314;SDS011;28703;44.412;11.918;2023-02-01T04:48:41;73.30;;;43.80;;
39314;SDS011;28703;44.412;11.918;2023-02-01T04:51:09;72.38;;;44.63;;
39314;SDS011;28703;44.412;11.918;2023-02-01T04:53:36;74.28;;;45.20;;
39314;SDS011;28703;44.412;11.918;2023-02-01T04:56:21;73.57;;;44.00;;
39314;SDS011;28703;44.412;11.918;2023-02-01T04:59:05;67.72;;;42.28;;
39314;SDS011;28703;44.412;11.918;2023-02-01T05:04:16;66.80;;;44.40;;
39314;SDS011;28703;44.412;11.918;2023-02-01T05:06:43;77.75;;;45.65;;
39314;SDS011;28703;44.412;11.918;2023-02-01T05:09:28;82.30;;;48.65;;
39314;SDS011;28703;44.412;11.918;2023-02-01T05:12:13;72.10;;;44.92;;
39314;SDS011;28703;44.412;11.918;2023-02-01T05:15:16;67.65;;;44.20;;
39314;SDS011;28703;44.412;11.918;2023-02-01T05:17:42;70.75;;;46.00;;
39314;SDS011;28703;44.412;11.918;2023-02-01T05:20:08;66.90;;;44.42;;
39314;SDS011;28703;44.412;11.918;2023-02-01T05:25:19;70.43;;;46.70;;
39314;SDS011;28703;44.412;11.918;2023-02-01T05:27:45;71.85;;;44.92;;
39314;SDS011;28703;44.412;11.918;2023-02-01T05:33:14;64.95;;;43.03;;
39314;SDS011;28703;44.412;11.918;2023-02-01T05:35:40;68.75;;;43.60;;
39314;SDS011;28703;44.412;11.918;2023-02-01T05:38:24;68.57;;;42.53;;
39314;SDS011;28703;44.412;11.918;2023-02-01T05:40:50;64.30;;;44.95;;
39314;SDS011;28703;44.412;11.918;2023-02-01T05:43:34;69.65;;;43.97;;
39314;SDS011;28703;44.412;11.918;2023-02-01T05:46:00;71.57;;;43.70;;
39314;SDS011;28703;44.412;11.918;2023-02-01T05:48:45;75.50;;;46.80;;
39314;SDS011;28703;44.412;11.918;2023-02-01T05:53:55;73.35;;;45.10;;
39314;SDS011;28703;44.412;11.918;2023-02-01T05:56:40;68.90;;;43.30;;
39314;SDS011;28703;44.412;11.918;2023-02-01T05:59:05;78.07;;;43.05;;
39314;SDS011;28703;44.412;11.918;2023-02-01T06:01:35;71.13;;;44.42;;
39314;SDS011;28703;44.412;11.918;2023-02-01T06:04:19;67.10;;;43.70;;
39314;SDS011;28703;44.412;11.918;2023-02-01T06:06:45;74.93;;;46.85;;
39314;SDS011;28703;44.412;11.918;2023-02-01T06:09:15;70.78;;;44.35;;
39314;SDS011;28703;44.412;11.918;2023-02-01T06:17:51;76.47;;;45.50;;
39314;SDS011;28703;44.412;11.918;2023-02-01T06:20:54;76.78;;;47.15;;
39314;SDS011;28703;44.412;11.918;2023-02-01T06:23:51;70.70;;;45.00;;
39314;SDS011;28703;44.412;11.918;2023-02-01T06:26:18;72.45;;;45.17;;
39314;SDS011;28703;44.412;11.918;2023-02-01T06:28:45;73.72;;;47.25;;
39314;SDS011;28703;44.412;11.918;2023-02-01T06:31:11;68.97;;;44.00;;
39314;SDS011;28703;44.412;11.918;2023-02-01T06:33:58;74.45;;;47.00;;
39314;SDS011;28703;44.412;11.918;2023-02-01T06:36:24;75.72;;;46.00;;
39314;SDS011;28703;44.412;11.918;2023-02-01T06:39:08;73.70;;;45.47;;
39314;SDS011;28703;44.412;11.918;2023-02-01T06:41:53;71.28;;;46.22;;
39314;SDS011;28703;44.412;11.918;2023-02-01T06:44:38;75.25;;;49.03;;
39314;SDS011;28703;44.412;11.918;2023-02-01T06:47:04;75.35;;;49.03;;
39314;SDS011;28703;44.412;11.918;2023-02-01T06:52:52;81.97;;;50.53;;
39314;SDS011;28703;44.412;11.918;2023-02-01T06:55:18;96.85;;;57.28;;
39314;SDS011;28703;44.412;11.918;2023-02-01T06:57:44;91.63;;;55.53;;
39314;SDS011;28703;44.412;11.918;2023-02-01T07:00:12;91.55;;;53.75;;
39314;SDS011;28703;44.412;11.918;2023-02-01T07:02:39;85.95;;;54.03;;
39314;SDS011;28703;44.412;11.918;2023-02-01T07:05:05;88.95;;;52.35;;
39314;SDS011;28703;44.412;11.918;2023-02-01T07:07:31;82.82;;;52.78;;
39314;SDS011;28703;44.412;11.918;2023-02-01T07:09:57;76.72;;;50.67;;
39314;SDS011;28703;44.412;11.918;2023-02-01T07:12:22;70.88;;;45.15;;
39314;SDS011;28703;44.412;11.918;2023-02-01T07:15:07;73.80;;;47.20;;
39314;SDS011;28703;44.412;11.918;2023-02-01T07:20:21;70.38;;;43.80;;
39314;SDS011;28703;44.412;11.918;2023-02-01T07:22:47;73.25;;;44.63;;
39314;SDS011;28703;44.412;11.918;2023-02-01T07:25:33;72.07;;;47.88;;
39314;SDS011;28703;44.412;11.918;2023-02-01T07:27:59;77.55;;;46.85;;
39314;SDS011;28703;44.412;11.918;2023-02-01T07:31:07;80.30;;;49.30;;
39314;SDS011;28703;44.412;11.918;2023-02-01T07:33:34;89.13;;;53.13;;
39314;SDS011;28703;44.412;11.918;2023-02-01T07:36:01;85.15;;;50.58;;
39314;SDS011;28703;44.412;11.918;2023-02-01T07:38:29;79.68;;;51.20;;
39314;SDS011;28703;44.412;11.918;2023-02-01T07:40:59;78.25;;;48.20;;
39314;SDS011;28703;44.412;11.918;2023-02-01T07:43:26;74.10;;;47.83;;
39314;SDS011;28703;44.412;11.918;2023-02-01T07:45:53;75.95;;;48.65;;
39314;SDS011;28703;44.412;11.918;2023-02-01T07:48:20;83.18;;;47.97;;
39314;SDS011;28703;44.412;11.918;2023-02-01T07:50:47;85.10;;;50.33;;
39314;SDS011;28703;44.412;11.918;2023-02-01T07:53:32;96.43;;;56.80;;
39314;SDS011;28703;44.412;11.918;2023-02-01T07:55:59;78.18;;;48.33;;
39314;SDS011;28703;44.412;11.918;2023-02-01T07:58:26;73.38;;;47.42;;
39314;SDS011;28703;44.412;11.918;2023-02-01T08:00:52;65.65;;;43.38;;
39314;SDS011;28703;44.412;11.918;2023-02-01T08:03:37;55.25;;;38.40;;
39314;SDS011;28703;44.412;11.918;2023-02-01T08:06:22;57.90;;;36.95;;
39314;SDS011;28703;44.412;11.918;2023-02-01T08:08:50;58.95;;;38.30;;
39314;SDS011;28703;44.412;11.918;2023-02-01T08:11:17;56.28;;;37.05;;
39314;SDS011;28703;44.412;11.918;2023-02-01T08:13:44;53.60;;;35.05;;
39314;SDS011;28703;44.412;11.918;2023-02-01T08:16:28;51.35;;;33.85;;
39314;SDS011;28703;44.412;11.918;2023-02-01T08:18:54;55.90;;;35.55;;
39314;SDS011;28703;44.412;11.918;2023-02-01T08:21:25;51.47;;;34.35;;
39314;SDS011;28703;44.412;11.918;2023-02-01T08:24:02;56.92;;;36.22;;
39314;SDS011;28703;44.412;11.918;2023-02-01T08:26:32;59.83;;;36.80;;
39314;SDS011;28703;44.412;11.918;2023-02-01T08:28:58;56.95;;;36.78;;
39314;SDS011;28703;44.412;11.918;2023-02-01T08:34:11;58.63;;;39.88;;
39314;SDS011;28703;44.412;11.918;2023-02-01T08:36:38;53.70;;;35.58;;
39314;SDS011;28703;44.412;11.918;2023-02-01T08:39:04;54.33;;;36.28;;
39314;SDS011;28703;44.412;11.918;2023-02-01T08:41:34;60.15;;;38.35;;
39314;SDS011;28703;44.412;11.918;2023-02-01T08:44:00;75.38;;;42.33;;
39314;SDS011;28703;44.412;11.918;2023-02-01T08:46:26;65.13;;;42.53;;
39314;SDS011;28703;44.412;11.918;2023-02-01T08:48:52;73.95;;;47.45;;
39314;SDS011;28703;44.412;11.918;2023-02-01T08:51:37;87.72;;;50.35;;
39314;SDS011;28703;44.412;11.918;2023-02-01T08:54:40;78.55;;;54.00;;
39314;SDS011;28703;44.412;11.918;2023-02-01T08:57:07;83.40;;;54.78;;
39314;SDS011;28703;44.412;11.918;2023-02-01T08:59:35;88.55;;;58.63;;
39314;SDS011;28703;44.412;11.918;2023-02-01T09:02:19;87.85;;;58.90;;
39314;SDS011;28703;44.412;11.918;2023-02-01T09:04:45;90.45;;;62.05;;
39314;SDS011;28703;44.412;11.918;2023-02-01T09:07:11;99.28;;;64.97;;
39314;SDS011;28703;44.412;11.918;2023-02-01T09:12:41;102.68;;;65.80;;
39314;SDS011;28703;44.412;11.918;2023-02-01T09:15:07;103.40;;;67.30;;
39314;SDS011;28703;44.412;11.918;2023-02-01T09:17:53;87.65;;;61.60;;
39314;SDS011;28703;44.412;11.918;2023-02-01T09:20:19;104.07;;;68.55;;
39314;SDS011;28703;44.412;11.918;2023-02-01T09:28:18;113.05;;;74.45;;
39314;SDS011;28703;44.412;11.918;2023-02-01T09:30:45;126.32;;;76.30;;
39314;SDS011;28703;44.412;11.918;2023-02-01T09:33:18;135.57;;;88.43;;
39314;SDS011;28703;44.412;11.918;2023-02-01T09:36:04;138.18;;;88.72;;
39314;SDS011;28703;44.412;11.918;2023-02-01T09:38:31;123.55;;;83.65;;
39314;SDS011;28703;44.412;11.918;2023-02-01T09:40:57;128.80;;;84.63;;
39314;SDS011;28703;44.412;11.918;2023-02-01T09:46:39;117.07;;;78.80;;
39314;SDS011;28703;44.412;11.918;2023-02-01T09:49:08;138.80;;;90.25;;
39314;SDS011;28703;44.412;11.918;2023-02-01T09:51:46;132.23;;;89.15;;
39314;SDS011;28703;44.412;11.918;2023-02-01T09:54:40;144.85;;;92.63;;
39314;SDS011;28703;44.412;11.918;2023-02-01T09:57:13;138.30;;;93.57;;
39314;SDS011;28703;44.412;11.918;2023-02-01T09:59:45;136.30;;;91.28;;
39314;SDS011;28703;44.412;11.918;2023-02-01T10:02:19;149.05;;;95.97;;
39314;SDS011;28703;44.412;11.918;2023-02-01T10:05:31;151.70;;;93.20;;
39314;SDS011;28703;44.412;11.918;2023-02-01T10:11:23;167.82;;;95.10;;
39314;SDS011;28703;44.412;11.918;2023-02-01T10:22:37;134.90;;;89.22;;
39314;SDS011;28703;44.412;11.918;2023-02-01T10:25:26;123.15;;;81.88;;
39314;SDS011;28703;44.412;11.918;2023-02-01T10:27:59;133.35;;;84.82;;
39314;SDS011;28703;44.412;11.918;2023-02-01T10:30:40;129.88;;;87.00;;
39314;SDS011;28703;44.412;11.918;2023-02-01T10:33:30;135.07;;;84.45;;
39314;SDS011;28703;44.412;11.918;2023-02-01T10:36:08;119.78;;;77.65;;
39314;SDS011;28703;44.412;11.918;2023-02-01T10:38:49;122.25;;;78.35;;
39314;SDS011;28703;44.412;11.918;2023-02-01T10:41:16;125.97;;;81.57;;
39314;SDS011;28703;44.412;11.918;2023-02-01T10:43:45;139.45;;;87.18;;
39314;SDS011;28703;44.412;11.918;2023-02-01T10:46:16;115.32;;;76.60;;
39314;SDS011;28703;44.412;11.918;2023-02-01T10:48:42;128.20;;;82.80;;
39314;SDS011;28703;44.412;11.918;2023-02-01T10:54:00;126.53;;;85.28;;
39314;SDS011;28703;44.412;11.918;2023-02-01T10:56:47;123.88;;;82.20;;
39314;SDS011;28703;44.412;11.918;2023-02-01T10:59:33;126.70;;;85.55;;
39314;SDS011;28703;44.412;11.918;2023-02-01T11:02:35;132.27;;;88.53;;
39314;SDS011;28703;44.412;11.918;2023-02-01T11:04:59;139.30;;;89.50;;
39314;SDS011;28703;44.412;11.918;2023-02-01T11:07:30;135.30;;;86.88;;
39314;SDS011;28703;44.412;11.918;2023-02-01T11:09:57;128.15;;;85.35;;
39314;SDS011;28703;44.412;11.918;2023-02-01T11:12:31;119.32;;;80.88;;
39314;SDS011;28703;44.412;11.918;2023-02-01T11:17:55;118.13;;;79.15;;
39314;SDS011;28703;44.412;11.918;2023-02-01T11:23:31;130.85;;;83.97;;
39314;SDS011;28703;44.412;11.918;2023-02-01T11:29:09;116.20;;;77.45;;
39314;SDS011;28703;44.412;11.918;2023-02-01T11:31:39;116.72;;;77.18;;
39314;SDS011;28703;44.412;11.918;2023-02-01T11:34:12;113.20;;;74.32;;
39314;SDS011;28703;44.412;11.918;2023-02-01T11:36:42;111.13;;;76.35;;
39314;SDS011;28703;44.412;11.918;2023-02-01T11:42:11;118.03;;;76.53;;
39314;SDS011;28703;44.412;11.918;2023-02-01T11:44:42;105.72;;;73.43;;
39314;SDS011;28703;44.412;11.918;2023-02-01T11:50:00;102.53;;;69.80;;
39314;SDS011;28703;44.412;11.918;2023-02-01T11:58:21;97.10;;;66.25;;
39314;SDS011;28703;44.412;11.918;2023-02-01T12:16:38;92.13;;;60.53;;
39314;SDS011;28703;44.412;11.918;2023-02-01T12:19:22;85.28;;;58.17;;
39314;SDS011;28703;44.412;11.918;2023-02-01T12:33:12;80.32;;;55.92;;
39314;SDS011;28703;44.412;11.918;2023-02-01T12:39:40;75.03;;;52.75;;
39314;SDS011;28703;44.412;11.918;2023-02-01T12:43:25;81.30;;;56.30;;
39314;SDS011;28703;44.412;11.918;2023-02-01T12:50:52;74.70;;;50.60;;
39314;SDS011;28703;44.412;11.918;2023-02-01T12:53:29;74.60;;;49.65;;
39314;SDS011;28703;44.412;11.918;2023-02-01T13:05:21;72.82;;;49.05;;
39314;SDS011;28703;44.412;11.918;2023-02-01T13:07:57;67.20;;;47.05;;
39314;SDS011;28703;44.412;11.918;2023-02-01T13:10:57;65.10;;;45.00;;
39314;SDS011;28703;44.412;11.918;2023-02-01T13:13:30;57.23;;;42.03;;
39314;SDS011;28703;44.412;11.918;2023-02-01T13:16:50;61.80;;;42.42;;
39314;SDS011;28703;44.412;11.918;2023-02-01T13:26:11;48.50;;;36.92;;
39314;SDS011;28703;44.412;11.918;2023-02-01T13:28:55;47.33;;;33.58;;
39314;SDS011;28703;44.412;11.918;2023-02-01T13:45:18;46.85;;;31.63;;
39314;SDS011;28703;44.412;11.918;2023-02-01T13:47:48;49.08;;;34.53;;
39314;SDS011;28703;44.412;11.918;2023-02-01T13:56:22;45.75;;;30.75;;
39314;SDS011;28703;44.412;11.918;2023-02-01T14:05:57;46.15;;;31.80;;
39314;SDS011;28703;44.412;11.918;2023-02-01T14:16:37;44.47;;;29.02;;
39314;SDS011;28703;44.412;11.918;2023-02-01T14:19:07;40.47;;;28.20;;
39314;SDS011;28703;44.412;11.918;2023-02-01T14:21:53;37.80;;;26.92;;
39314;SDS011;28703;44.412;11.918;2023-02-01T14:24:38;37.42;;;25.15;;
39314;SDS011;28703;44.412;11.918;2023-02-01T14:27:16;45.97;;;26.23;;
39314;SDS011;28703;44.412;11.918;2023-02-01T14:30:06;32.63;;;22.67;;
39314;SDS011;28703;44.412;11.918;2023-02-01T14:33:23;41.63;;;25.73;;
39314;SDS011;28703;44.412;11.918;2023-02-01T14:39:16;37.53;;;23.10;;
39314;SDS011;28703;44.412;11.918;2023-02-01T14:42:14;37.15;;;24.00;;
39314;SDS011;28703;44.412;11.918;2023-02-01T14:50:54;25.55;;;19.52;;
39314;SDS011;28703;44.412;11.918;2023-02-01T14:53:28;33.88;;;25.50;;
39314;SDS011;28703;44.412;11.918;2023-02-01T14:56:18;43.15;;;26.98;;
39314;SDS011;28703;44.412;11.918;2023-02-01T14:59:07;23.63;;;17.10;;
39314;SDS011;28703;44.412;11.918;2023-02-01T15:01:39;28.02;;;17.35;;
39314;SDS011;28703;44.412;11.918;2023-02-01T15:04:16;25.95;;;16.15;;
39314;SDS011;28703;44.412;11.918;2023-02-01T15:09:52;21.23;;;14.32;;
39314;SDS011;28703;44.412;11.918;2023-02-01T15:12:23;18.45;;;11.82;;
39314;SDS011;28703;44.412;11.918;2023-02-01T15:17:56;17.95;;;11.38;;
39314;SDS011;28703;44.412;11.918;2023-02-01T15:20:41;16.85;;;10.30;;
39314;SDS011;28703;44.412;11.918;2023-02-01T15:23:15;18.88;;;12.38;;
39314;SDS011;28703;44.412;11.918;2023-02-01T15:25:44;23.33;;;12.88;;
39314;SDS011;28703;44.412;11.918;2023-02-01T15:28:15;21.23;;;11.60;;
39314;SDS011;28703;44.412;11.918;2023-02-01T15:30:52;19.25;;;12.82;;
39314;SDS011;28703;44.412;11.918;2023-02-01T15:33:20;23.58;;;15.20;;
39314;SDS011;28703;44.412;11.918;2023-02-01T15:35:47;24.80;;;16.02;;
39314;SDS011;28703;44.412;11.918;2023-02-01T15:41:17;25.40;;;13.50;;
39314;SDS011;28703;44.412;11.918;2023-02-01T15:46:44;23.17;;;14.20;;
39314;SDS011;28703;44.412;11.918;2023-02-01T15:49:31;23.60;;;14.45;;
39314;SDS011;28703;44.412;11.918;2023-02-01T15:52:02;24.15;;;15.18;;
39314;SDS011;28703;44.412;11.918;2023-02-01T15:54:41;32.75;;;16.38;;
39314;SDS011;28703;44.412;11.918;2023-02-01T15:57:12;23.95;;;14.52;;
39314;SDS011;28703;44.412;11.918;2023-02-01T15:59:48;28.73;;;16.58;;
39314;SDS011;28703;44.412;11.918;2023-02-01T16:02:27;24.10;;;16.88;;
39314;SDS011;28703;44.412;11.918;2023-02-01T16:05:03;37.45;;;19.50;;
39314;SDS011;28703;44.412;11.918;2023-02-01T16:07:32;29.02;;;19.02;;
39314;SDS011;28703;44.412;11.918;2023-02-01T16:10:00;27.13;;;17.27;;
39314;SDS011;28703;44.412;11.918;2023-02-01T16:13:02;34.05;;;19.27;;
39314;SDS011;28703;44.412;11.918;2023-02-01T16:15:28;41.60;;;21.80;;
39314;SDS011;28703;44.412;11.918;2023-02-01T16:17:55;41.30;;;21.55;;
39314;SDS011;28703;44.412;11.918;2023-02-01T16:20:59;37.60;;;21.05;;
39314;SDS011;28703;44.412;11.918;2023-02-01T16:23:27;40.60;;;20.50;;
39314;SDS011;28703;44.412;11.918;2023-02-01T16:25:55;41.65;;;21.77;;
39314;SDS011;28703;44.412;11.918;2023-02-01T16:28:40;43.28;;;23.38;;
39314;SDS011;28703;44.412;11.918;2023-02-01T16:31:09;51.00;;;24.55;;
39314;SDS011;28703;44.412;11.918;2023-02-01T16:34:03;59.25;;;27.67;;
39314;SDS011;28703;44.412;11.918;2023-02-01T16:36:32;47.42;;;26.67;;
39314;SDS011;28703;44.412;11.918;2023-02-01T16:39:18;57.45;;;28.92;;
39314;SDS011;28703;44.412;11.918;2023-02-01T16:41:45;57.60;;;29.40;;
39314;SDS011;28703;44.412;11.918;2023-02-01T16:44:12;59.25;;;28.88;;
39314;SDS011;28703;44.412;11.918;2023-02-01T16:46:41;55.22;;;29.88;;
39314;SDS011;28703;44.412;11.918;2023-02-01T16:54:35;56.67;;;33.95;;
39314;SDS011;28703;44.412;11.918;2023-02-01T16:57:01;61.70;;;31.70;;
39314;SDS011;28703;44.412;11.918;2023-02-01T16:59:27;69.47;;;30.08;;
39314;SDS011;28703;44.412;11.918;2023-02-01T17:01:53;52.80;;;26.95;;
39314;SDS011;28703;44.412;11.918;2023-02-01T17:04:19;57.20;;;27.20;;
39314;SDS011;28703;44.412;11.918;2023-02-01T17:06:46;44.90;;;25.75;;
39314;SDS011;28703;44.412;11.918;2023-02-01T17:12:01;52.35;;;27.38;;
39314;SDS011;28703;44.412;11.918;2023-02-01T17:14:29;52.67;;;27.75;;
39314;SDS011;28703;44.412;11.918;2023-02-01T17:16:58;52.20;;;28.30;;
39314;SDS011;28703;44.412;11.918;2023-02-01T17:19:25;48.65;;;27.23;;
39314;SDS011;28703;44.412;11.918;2023-02-01T17:24:35;53.88;;;32.40;;
39314;SDS011;28703;44.412;11.918;2023-02-01T17:29:47;80.47;;;48.00;;
39314;SDS011;28703;44.412;11.918;2023-02-01T17:32:20;73.13;;;45.00;;
39314;SDS011;28703;44.412;11.918;2023-02-01T17:34:48;65.95;;;38.30;;
39314;SDS011;28703;44.412;11.918;2023-02-01T17:39:53;53.30;;;32.72;;
39314;SDS011;28703;44.412;11.918;2023-02-01T17:42:37;54.35;;;31.05;;
39314;SDS011;28703;44.412;11.918;2023-02-01T17:45:32;54.00;;;31.92;;
39314;SDS011;28703;44.412;11.918;2023-02-01T17:48:23;60.80;;;33.78;;
39314;SDS011;28703;44.412;11.918;2023-02-01T17:50:50;64.78;;;32.78;;
39314;SDS011;28703;44.412;11.918;2023-02-01T17:53:24;56.72;;;37.92;;
39314;SDS011;28703;44.412;11.918;2023-02-01T17:56:12;59.90;;;35.35;;
39314;SDS011;28703;44.412;11.918;2023-02-01T17:58:58;64.47;;;38.08;;
39314;SDS011;28703;44.412;11.918;2023-02-01T18:01:25;59.58;;;37.67;;
39314;SDS011;28703;44.412;11.918;2023-02-01T18:04:15;63.00;;;36.65;;
39314;SDS011;28703;44.412;11.918;2023-02-01T18:09:27;55.00;;;32.83;;
39314;SDS011;28703;44.412;11.918;2023-02-01T18:11:56;54.80;;;34.58;;
39314;SDS011;28703;44.412;11.918;2023-02-01T18:14:23;73.32;;;41.70;;
39314;SDS011;28703;44.412;11.918;2023-02-01T18:16:49;73.28;;;41.85;;
39314;SDS011;28703;44.412;11.918;2023-02-01T18:19:15;67.13;;;39.53;;
39314;SDS011;28703;44.412;11.918;2023-02-01T18:22:20;67.40;;;44.28;;
39314;SDS011;28703;44.412;11.918;2023-02-01T18:24:49;69.18;;;43.60;;
39314;SDS011;28703;44.412;11.918;2023-02-01T18:27:15;65.53;;;43.17;;
39314;SDS011;28703;44.412;11.918;2023-02-01T18:30:00;68.60;;;42.38;;
39314;SDS011;28703;44.412;11.918;2023-02-01T18:32:45;64.22;;;40.28;;
39314;SDS011;28703;44.412;11.918;2023-02-01T18:38:16;66.78;;;46.78;;
39314;SDS011;28703;44.412;11.918;2023-02-01T18:43:33;69.63;;;43.50;;
39314;SDS011;28703;44.412;11.918;2023-02-01T18:45:59;69.85;;;43.42;;
39314;SDS011;28703;44.412;11.918;2023-02-01T18:48:26;64.00;;;44.08;;
39314;SDS011;28703;44.412;11.918;2023-02-01T18:50:52;72.55;;;44.38;;
39314;SDS011;28703;44.412;11.918;2023-02-01T18:53:37;68.35;;;47.28;;
39314;SDS011;28703;44.412;11.918;2023-02-01T18:56:04;77.15;;;50.33;;
39314;SDS011;28703;44.412;11.918;2023-02-01T18:58:49;90.10;;;57.78;;